Time;durP1;ratioP1;P1;durP2;ratioP2;P2;SDS_P1;SDS_P2;PMS_P1;PMS_P2;Temp;Humidity;BMP_temperature;BMP_pressure;BME280_temperature;BME280_humidity;BME280_pressure;Samples;Min_cycle;Max_cycle;Signal;HPM_P1;HPM_P2
2023/09/06 00:01:08;;;;;;;7.68;3.25;;;;;;;;;;5030900;28;20179;-68
2023/09/06 00:03:36;;;;;;;3.60;2.40;;;;;;;;;;5031503;28;20261;-68
2023/09/06 00:06:01;;;;;;;3.40;2.67;;;;;;;;;;5030768;28;20202;-68
2023/09/06 00:08:26;;;;;;;4.50;2.65;;;;;;;;;;5019880;28;20949;-68
2023/09/06 00:10:52;;;;;;;5.40;2.75;;;;;;;;;;5019470;28;20183;-68
2023/09/06 00:13:18;;;;;;;3.92;2.70;;;;;;;;;;5030993;28;20232;-68
2023/09/06 00:15:43;;;;;;;4.03;2.88;;;;;;;;;;5031819;28;20209;-68
2023/09/06 00:18:08;;;;;;;5.57;3.17;;;;;;;;;;5025726;28;20209;-69
2023/09/06 00:20:34;;;;;;;3.38;2.67;;;;;;;;;;5024993;28;20190;-68
2023/09/06 00:23:04;;;;;;;3.30;2.97;;;;;;;;;;5028678;28;20190;-68
2023/09/06 00:25:31;;;;;;;3.55;2.50;;;;;;;;;;5028435;28;20181;-68
2023/09/06 00:27:58;;;;;;;2.92;2.47;;;;;;;;;;5030736;23;20333;-66
2023/09/06 00:30:23;;;;;;;3.97;2.53;;;;;;;;;;5023899;28;20194;-65
2023/09/06 00:32:52;;;;;;;5.13;2.90;;;;;;;;;;5031757;28;20179;-66
2023/09/06 00:35:23;;;;;;;3.75;2.40;;;;;;;;;;5026808;28;20632;-66
2023/09/06 00:37:49;;;;;;;2.80;2.47;;;;;;;;;;5027352;28;20217;-67
2023/09/06 00:40:17;;;;;;;7.07;3.17;;;;;;;;;;5025411;28;20178;-65
2023/09/06 00:42:49;;;;;;;5.20;2.53;;;;;;;;;;5025078;28;20174;-65
2023/09/06 00:45:15;;;;;;;3.05;2.47;;;;;;;;;;5017105;28;20614;-66
2023/09/06 00:47:42;;;;;;;6.13;2.80;;;;;;;;;;5026743;28;20785;-66
2023/09/06 00:50:07;;;;;;;5.97;3.30;;;;;;;;;;5023593;28;20185;-66
2023/09/06 00:52:33;;;;;;;5.68;3.25;;;;;;;;;;5028369;28;20257;-65
2023/09/06 00:55:01;;;;;;;3.67;2.83;;;;;;;;;;5028171;28;20182;-66
2023/09/06 00:57:26;;;;;;;5.45;3.00;;;;;;;;;;5047368;28;20255;-66
2023/09/06 00:59:52;;;;;;;3.28;2.60;;;;;;;;;;5031996;28;20186;-66
2023/09/06 01:02:17;;;;;;;3.58;3.17;;;;;;;;;;5025983;28;20189;-65
2023/09/06 01:04:42;;;;;;;5.43;3.88;;;;;;;;;;5031629;28;20244;-66
2023/09/06 01:07:09;;;;;;;5.53;3.75;;;;;;;;;;5020964;28;20206;-65
2023/09/06 01:09:34;;;;;;;3.72;3.20;;;;;;;;;;5012567;28;20175;-66
2023/09/06 01:11:59;;;;;;;6.35;3.35;;;;;;;;;;5026577;28;20564;-65
2023/09/06 01:14:25;;;;;;;3.35;2.80;;;;;;;;;;5027521;28;20235;-66
2023/09/06 01:16:53;;;;;;;5.30;3.40;;;;;;;;;;5027496;28;20715;-65
2023/09/06 01:19:18;;;;;;;3.88;3.25;;;;;;;;;;5028015;28;20672;-65
2023/09/06 01:21:58;;;;;;;5.63;4.03;;;;;;;;;;5019199;28;20251;-66
2023/09/06 01:24:24;;;;;;;4.50;3.45;;;;;;;;;;5024887;28;20189;-66
2023/09/06 01:26:50;;;;;;;5.07;4.28;;;;;;;;;;5024509;28;20230;-66
2023/09/06 01:29:15;;;;;;;8.23;4.70;;;;;;;;;;5020812;28;20783;-65
2023/09/06 01:31:40;;;;;;;5.13;3.85;;;;;;;;;;5025492;28;20183;-71
2023/09/06 01:34:05;;;;;;;6.25;3.53;;;;;;;;;;5025082;28;20205;-64
2023/09/06 01:36:31;;;;;;;4.38;3.65;;;;;;;;;;5025904;28;20198;-67
2023/09/06 01:38:57;;;;;;;6.13;3.85;;;;;;;;;;5028451;28;20185;-66
2023/09/06 01:41:22;;;;;;;6.03;4.05;;;;;;;;;;5019692;28;20174;-66
2023/09/06 01:43:50;;;;;;;5.07;3.90;;;;;;;;;;5023420;28;20178;-66
2023/09/06 01:46:15;;;;;;;5.55;3.75;;;;;;;;;;5026581;28;20664;-65
2023/09/06 01:48:40;;;;;;;5.93;4.25;;;;;;;;;;5030952;28;20244;-65
2023/09/06 01:51:08;;;;;;;4.40;3.80;;;;;;;;;;5029342;28;20177;-63
2023/09/06 01:53:33;;;;;;;5.95;4.35;;;;;;;;;;5026707;28;20243;-67
2023/09/06 01:55:58;;;;;;;6.05;4.22;;;;;;;;;;5025775;28;20636;-65
2023/09/06 01:58:24;;;;;;;7.30;3.58;;;;;;;;;;5019619;28;20370;-65
2023/09/06 02:00:49;;;;;;;6.78;4.13;;;;;;;;;;5022442;28;20546;-67
2023/09/06 02:03:16;;;;;;;6.07;4.47;;;;;;;;;;5025310;28;20696;-65
2023/09/06 02:05:41;;;;;;;5.50;4.38;;;;;;;;;;5028119;28;20245;-65
2023/09/06 02:08:07;;;;;;;5.03;4.22;;;;;;;;;;5028958;28;20205;-67
2023/09/06 02:10:33;;;;;;;4.30;3.90;;;;;;;;;;5030915;28;20652;-67
2023/09/06 02:12:58;;;;;;;5.57;3.58;;;;;;;;;;5027557;28;20174;-65
2023/09/06 02:15:23;;;;;;;6.10;4.10;;;;;;;;;;5029831;28;21428;-64
2023/09/06 02:17:48;;;;;;;9.63;4.50;;;;;;;;;;5023996;28;20206;-65
2023/09/06 02:20:24;;;;;;;5.15;4.03;;;;;;;;;;5026393;28;20610;-64
2023/09/06 02:22:57;;;;;;;5.43;4.80;;;;;;;;;;5027254;28;20181;-66
2023/09/06 02:25:29;;;;;;;5.72;4.30;;;;;;;;;;5027852;28;20181;-65
2023/09/06 02:27:55;;;;;;;4.63;4.00;;;;;;;;;;5025691;28;20249;-65
2023/09/06 02:30:21;;;;;;;4.65;3.53;;;;;;;;;;5021982;28;20201;-65
2023/09/06 02:32:47;;;;;;;8.73;4.43;;;;;;;;;;5030388;28;20171;-65
2023/09/06 02:35:13;;;;;;;7.00;4.78;;;;;;;;;;5026622;28;20186;-65
2023/09/06 02:37:38;;;;;;;6.10;4.78;;;;;;;;;;5023530;28;20201;-65
2023/09/06 02:40:21;;;;;;;6.13;4.25;;;;;;;;;;5029402;28;20607;-65
2023/09/06 02:42:48;;;;;;;5.50;4.63;;;;;;;;;;5024593;28;20278;-65
2023/09/06 02:45:14;;;;;;;5.00;4.45;;;;;;;;;;5029664;28;20186;-66
2023/09/06 02:47:49;;;;;;;7.75;4.80;;;;;;;;;;5029876;28;20684;-65
2023/09/06 02:50:16;;;;;;;5.55;4.78;;;;;;;;;;5028702;28;20182;-65
2023/09/06 02:52:44;;;;;;;7.00;5.53;;;;;;;;;;5026132;28;20178;-65
2023/09/06 02:55:13;;;;;;;5.75;4.25;;;;;;;;;;5029393;28;20650;-65
2023/09/06 02:57:38;;;;;;;5.78;5.15;;;;;;;;;;5028552;28;20197;-65
2023/09/06 03:00:17;;;;;;;4.65;4.18;;;;;;;;;;5017205;28;20190;-65
2023/09/06 03:02:42;;;;;;;8.02;4.80;;;;;;;;;;5029592;28;20186;-65
2023/09/06 03:05:09;;;;;;;5.78;4.57;;;;;;;;;;5025543;28;20273;-66
2023/09/06 03:07:34;;;;;;;6.95;4.38;;;;;;;;;;5023771;28;20202;-65
2023/09/06 03:09:59;;;;;;;6.82;5.20;;;;;;;;;;5028096;28;20228;-66
2023/09/06 03:12:25;;;;;;;4.68;4.10;;;;;;;;;;5028329;28;20241;-65
2023/09/06 03:14:51;;;;;;;6.35;4.47;;;;;;;;;;5030978;28;20197;-66
2023/09/06 03:17:18;;;;;;;5.47;4.88;;;;;;;;;;5027599;28;20230;-65
2023/09/06 03:19:48;;;;;;;6.20;4.68;;;;;;;;;;5026014;28;20199;-65
2023/09/06 03:22:13;;;;;;;5.20;4.70;;;;;;;;;;5021772;28;20178;-65
2023/09/06 03:24:43;;;;;;;6.32;5.40;;;;;;;;;;5027298;28;20174;-66
2023/09/06 03:27:09;;;;;;;6.30;4.93;;;;;;;;;;5024973;28;20644;-66
2023/09/06 03:29:37;;;;;;;6.93;5.43;;;;;;;;;;5022296;28;20202;-65
2023/09/06 03:32:09;;;;;;;8.38;5.63;;;;;;;;;;5027156;28;20175;-66
2023/09/06 03:34:34;;;;;;;8.15;5.60;;;;;;;;;;5022818;28;20171;-65
2023/09/06 03:37:00;;;;;;;8.57;6.00;;;;;;;;;;5024012;28;20245;-65
2023/09/06 03:39:29;;;;;;;7.68;5.40;;;;;;;;;;5024001;28;20210;-65
2023/09/06 03:41:55;;;;;;;8.57;6.10;;;;;;;;;;5030323;28;20188;-64
2023/09/06 03:44:21;;;;;;;7.13;5.72;;;;;;;;;;5024532;28;20186;-65
2023/09/06 03:46:46;;;;;;;8.43;5.43;;;;;;;;;;5020364;28;20231;-65
2023/09/06 03:49:13;;;;;;;5.97;4.85;;;;;;;;;;5023846;28;20265;-64
2023/09/06 03:51:38;;;;;;;5.43;4.53;;;;;;;;;;5021968;28;20175;-65
2023/09/06 03:54:06;;;;;;;7.22;5.60;;;;;;;;;;5024578;28;20720;-65
2023/09/06 03:56:31;;;;;;;5.85;5.03;;;;;;;;;;5021939;28;20638;-65
2023/09/06 03:59:00;;;;;;;8.15;5.13;;;;;;;;;;5030497;28;20186;-64
2023/09/06 04:01:26;;;;;;;6.68;5.38;;;;;;;;;;5018836;28;20191;-65
2023/09/06 04:03:51;;;;;;;6.38;4.93;;;;;;;;;;5049514;28;20178;-65
2023/09/06 04:06:17;;;;;;;5.57;4.65;;;;;;;;;;5023924;28;20738;-66
2023/09/06 04:08:43;;;;;;;5.07;4.57;;;;;;;;;;5001459;28;20252;-66
2023/09/06 04:11:09;;;;;;;9.48;5.63;;;;;;;;;;5018873;28;20179;-65
2023/09/06 04:13:35;;;;;;;7.38;5.35;;;;;;;;;;5024224;28;20177;-66
2023/09/06 04:16:00;;;;;;;9.57;5.72;;;;;;;;;;5020520;28;20547;-66
2023/09/06 04:18:25;;;;;;;8.30;5.45;;;;;;;;;;5023273;28;20191;-64
2023/09/06 04:20:50;;;;;;;5.32;4.65;;;;;;;;;;5049987;28;20672;-65
2023/09/06 04:23:16;;;;;;;6.30;4.82;;;;;;;;;;5019997;28;20210;-64
2023/09/06 04:25:42;;;;;;;6.68;5.20;;;;;;;;;;5024300;28;20186;-65
2023/09/06 04:28:07;;;;;;;5.43;4.90;;;;;;;;;;5026258;28;20561;-65
2023/09/06 04:30:35;;;;;;;6.07;5.25;;;;;;;;;;5029197;28;20186;-65
2023/09/06 04:33:01;;;;;;;6.90;5.53;;;;;;;;;;5024927;28;20211;-65
2023/09/06 04:35:31;;;;;;;7.13;5.00;;;;;;;;;;5018610;28;20217;-65
2023/09/06 04:37:56;;;;;;;6.35;5.25;;;;;;;;;;5021344;28;20232;-65
2023/09/06 04:40:22;;;;;;;8.18;6.10;;;;;;;;;;5028124;28;20597;-65
2023/09/06 04:42:47;;;;;;;8.40;6.38;;;;;;;;;;5032179;28;20197;-66
2023/09/06 04:45:12;;;;;;;7.63;6.05;;;;;;;;;;5030533;28;20167;-65
2023/09/06 04:47:39;;;;;;;9.10;6.85;;;;;;;;;;5025695;28;20249;-65
2023/09/06 04:50:05;;;;;;;9.18;6.28;;;;;;;;;;5029954;28;20597;-66
2023/09/06 04:52:35;;;;;;;7.20;6.28;;;;;;;;;;5017082;28;20171;-65
2023/09/06 04:55:01;;;;;;;7.43;6.05;;;;;;;;;;5022963;28;20667;-65
2023/09/06 04:57:26;;;;;;;9.93;6.85;;;;;;;;;;5021057;28;20689;-64
2023/09/06 04:59:52;;;;;;;8.85;5.97;;;;;;;;;;5019187;28;20178;-66
2023/09/06 05:02:17;;;;;;;7.60;6.80;;;;;;;;;;5024980;28;20182;-67
2023/09/06 05:04:43;;;;;;;8.27;7.32;;;;;;;;;;5026011;28;20633;-65
2023/09/06 05:07:09;;;;;;;8.73;7.15;;;;;;;;;;5021810;28;20207;-65
2023/09/06 05:09:34;;;;;;;7.65;6.18;;;;;;;;;;5017218;28;20183;-65
2023/09/06 05:11:59;;;;;;;9.02;6.60;;;;;;;;;;5013772;28;20179;-66
2023/09/06 05:14:25;;;;;;;10.25;7.10;;;;;;;;;;5021577;28;20637;-65
2023/09/06 05:16:50;;;;;;;11.30;7.00;;;;;;;;;;5026890;28;20573;-66
2023/09/06 05:19:15;;;;;;;11.77;8.32;;;;;;;;;;5026255;28;20550;-65
2023/09/06 05:21:40;;;;;;;12.25;8.73;;;;;;;;;;5019997;28;20551;-65
2023/09/06 05:24:05;;;;;;;9.43;7.15;;;;;;;;;;5018368;28;20258;-66
2023/09/06 05:26:33;;;;;;;9.63;7.82;;;;;;;;;;5023683;28;20209;-66
2023/09/06 05:28:58;;;;;;;9.38;6.75;;;;;;;;;;5022976;28;20215;-66
2023/09/06 05:31:23;;;;;;;7.15;6.45;;;;;;;;;;5027308;28;20648;-66
2023/09/06 05:33:49;;;;;;;10.15;6.88;;;;;;;;;;5016949;28;20190;-66
2023/09/06 05:36:14;;;;;;;8.77;7.22;;;;;;;;;;5023767;28;20684;-65
2023/09/06 05:38:39;;;;;;;10.02;8.20;;;;;;;;;;5028145;28;20620;-65
2023/09/06 05:41:05;;;;;;;12.90;7.57;;;;;;;;;;5016876;28;20652;-67
2023/09/06 05:43:30;;;;;;;10.85;7.57;;;;;;;;;;5021826;28;20182;-65
2023/09/06 05:45:55;;;;;;;8.05;7.25;;;;;;;;;;5012533;28;20179;-65
2023/09/06 05:48:20;;;;;;;9.00;6.75;;;;;;;;;;5024619;28;20291;-65
2023/09/06 05:50:46;;;;;;;9.63;7.00;;;;;;;;;;5026647;28;20178;-65
2023/09/06 05:53:11;;;;;;;9.65;7.03;;;;;;;;;;5024989;28;20185;-66
2023/09/06 05:55:37;;;;;;;9.27;7.10;;;;;;;;;;5026070;28;20712;-66
2023/09/06 05:58:02;;;;;;;8.70;7.63;;;;;;;;;;5028325;28;20587;-66
2023/09/06 06:00:28;;;;;;;11.05;8.15;;;;;;;;;;5039057;28;20292;-66
2023/09/06 06:02:58;;;;;;;8.80;7.70;;;;;;;;;;5028277;28;20198;-65
2023/09/06 06:05:24;;;;;;;10.18;8.05;;;;;;;;;;5021202;28;20679;-66
2023/09/06 06:07:49;;;;;;;8.75;6.43;;;;;;;;;;5024036;28;20320;-66
2023/09/06 06:10:15;;;;;;;8.93;7.78;;;;;;;;;;5028895;28;20595;-66
2023/09/06 06:12:41;;;;;;;9.32;7.63;;;;;;;;;;5027965;28;20185;-66
2023/09/06 06:15:08;;;;;;;8.82;7.82;;;;;;;;;;5027001;28;20166;-66
2023/09/06 06:17:33;;;;;;;13.65;7.80;;;;;;;;;;5022376;28;20629;-64
2023/09/06 06:19:58;;;;;;;8.20;7.10;;;;;;;;;;5023191;28;20206;-64
2023/09/06 06:22:24;;;;;;;10.85;7.85;;;;;;;;;;5042486;28;20273;-65
2023/09/06 06:24:50;;;;;;;10.05;7.32;;;;;;;;;;5024641;28;20274;-65
2023/09/06 06:27:15;;;;;;;7.80;6.88;;;;;;;;;;5034031;22;20231;-69
2023/09/06 06:29:40;;;;;;;9.93;7.28;;;;;;;;;;4999044;28;20249;-69
2023/09/06 06:32:07;;;;;;;8.55;6.65;;;;;;;;;;5002214;28;20286;-70
2023/09/06 06:34:32;;;;;;;9.38;6.55;;;;;;;;;;5009480;28;20672;-70
2023/09/06 06:36:57;;;;;;;9.85;7.57;;;;;;;;;;5008644;28;20290;-70
2023/09/06 06:39:22;;;;;;;7.07;6.38;;;;;;;;;;5009974;28;20669;-70
2023/09/06 06:41:47;;;;;;;9.38;7.47;;;;;;;;;;5012811;28;20637;-70
2023/09/06 06:44:13;;;;;;;8.40;7.00;;;;;;;;;;5007535;28;20641;-70
2023/09/06 06:46:38;;;;;;;8.82;6.35;;;;;;;;;;5006284;28;20777;-70
2023/09/06 06:49:04;;;;;;;11.30;7.00;;;;;;;;;;5004234;28;20211;-70
2023/09/06 06:51:38;;;;;;;9.52;7.20;;;;;;;;;;5003549;28;20184;-70
2023/09/06 06:54:10;;;;;;;9.68;7.40;;;;;;;;;;5006231;28;20162;-70
2023/09/06 06:56:36;;;;;;;10.30;6.72;;;;;;;;;;5014049;28;20668;-70
2023/09/06 06:59:02;;;;;;;9.18;7.05;;;;;;;;;;5010504;28;20187;-69
2023/09/06 07:01:27;;;;;;;9.38;6.75;;;;;;;;;;5010859;28;20273;-70
2023/09/06 07:03:54;;;;;;;11.23;7.55;;;;;;;;;;5010115;28;20195;-70
2023/09/06 07:06:19;;;;;;;9.35;7.53;;;;;;;;;;5008595;28;20179;-70
2023/09/06 07:08:45;;;;;;;10.88;8.82;;;;;;;;;;5008745;28;20272;-70
2023/09/06 07:11:11;;;;;;;8.50;7.22;;;;;;;;;;5009741;28;20565;-70
2023/09/06 07:13:37;;;;;;;13.52;8.20;;;;;;;;;;5011334;28;20175;-70
2023/09/06 07:16:03;;;;;;;7.70;6.93;;;;;;;;;;5010893;28;20174;-70
2023/09/06 07:18:28;;;;;;;8.98;7.65;;;;;;;;;;5014697;28;20203;-70
2023/09/06 07:20:53;;;;;;;9.88;7.22;;;;;;;;;;5009477;28;20278;-69
2023/09/06 07:23:19;;;;;;;8.02;6.30;;;;;;;;;;5010417;28;20237;-70
2023/09/06 07:25:47;;;;;;;12.10;7.18;;;;;;;;;;5008319;28;20175;-70
2023/09/06 07:28:12;;;;;;;7.25;5.97;;;;;;;;;;5013208;28;20241;-70
2023/09/06 07:30:38;;;;;;;8.85;7.05;;;;;;;;;;5007067;28;20179;-70
2023/09/06 07:33:03;;;;;;;8.00;7.00;;;;;;;;;;5014669;28;20229;-70
2023/09/06 07:35:28;;;;;;;10.27;6.80;;;;;;;;;;5012280;28;20183;-70
2023/09/06 07:37:54;;;;;;;9.10;6.50;;;;;;;;;;5012322;28;20198;-70
2023/09/06 07:40:20;;;;;;;11.90;7.15;;;;;;;;;;5009530;28;20570;-70
2023/09/06 07:42:45;;;;;;;8.45;6.72;;;;;;;;;;5012857;28;20178;-70
2023/09/06 07:45:10;;;;;;;9.57;7.03;;;;;;;;;;5012118;28;20274;-73
2023/09/06 07:47:36;;;;;;;9.38;7.10;;;;;;;;;;5010365;28;20210;-71
2023/09/06 07:50:01;;;;;;;10.02;5.85;;;;;;;;;;5015926;28;20178;-70
2023/09/06 07:52:26;;;;;;;10.10;6.10;;;;;;;;;;5013647;28;20266;-70
2023/09/06 07:54:51;;;;;;;8.75;5.85;;;;;;;;;;5012961;28;20179;-71
2023/09/06 07:57:17;;;;;;;6.88;5.93;;;;;;;;;;5006800;28;20256;-71
2023/09/06 07:59:42;;;;;;;10.00;6.13;;;;;;;;;;5007451;28;20175;-71
2023/09/06 08:02:08;;;;;;;6.10;5.50;;;;;;;;;;5010253;28;20587;-70
2023/09/06 08:04:33;;;;;;;7.88;5.15;;;;;;;;;;5006997;28;20198;-70
2023/09/06 08:06:58;;;;;;;6.00;5.22;;;;;;;;;;5008189;28;20204;-71
2023/09/06 08:09:23;;;;;;;8.30;5.55;;;;;;;;;;5014915;28;20175;-71
2023/09/06 08:11:49;;;;;;;8.75;5.85;;;;;;;;;;5013312;28;20201;-71
2023/09/06 08:14:14;;;;;;;7.63;5.25;;;;;;;;;;5006807;28;20238;-71
2023/09/06 08:16:39;;;;;;;5.35;4.38;;;;;;;;;;5004409;28;20191;-71
2023/09/06 08:19:05;;;;;;;5.18;4.68;;;;;;;;;;5007830;28;20178;-71
2023/09/06 08:21:30;;;;;;;9.07;5.53;;;;;;;;;;5010572;28;20265;-71
2023/09/06 08:23:55;;;;;;;5.63;5.03;;;;;;;;;;5006549;28;20562;-71
2023/09/06 08:26:20;;;;;;;7.38;5.57;;;;;;;;;;5010960;28;20183;-71
2023/09/06 08:28:46;;;;;;;7.45;6.20;;;;;;;;;;5009073;28;20673;-70
2023/09/06 08:31:11;;;;;;;8.07;6.10;;;;;;;;;;5006978;28;20707;-72
2023/09/06 08:33:36;;;;;;;8.75;6.55;;;;;;;;;;5009390;28;20179;-70
2023/09/06 08:36:02;;;;;;;10.10;6.30;;;;;;;;;;5006265;28;20197;-70
2023/09/06 08:38:27;;;;;;;8.30;5.63;;;;;;;;;;5006986;28;20198;-70
2023/09/06 08:40:52;;;;;;;7.10;5.32;;;;;;;;;;5004663;28;20255;-72
2023/09/06 08:43:18;;;;;;;7.22;5.20;;;;;;;;;;5006418;28;20218;-72
2023/09/06 08:45:46;;;;;;;6.00;5.13;;;;;;;;;;5003774;28;20187;-70
2023/09/06 08:48:12;;;;;;;6.80;5.38;;;;;;;;;;5011918;28;20209;-71
2023/09/06 08:50:37;;;;;;;5.13;4.57;;;;;;;;;;5003059;28;20186;-73
2023/09/06 08:53:03;;;;;;;7.55;5.35;;;;;;;;;;5014051;28;20266;-72
2023/09/06 08:55:29;;;;;;;7.57;5.22;;;;;;;;;;5006856;28;20199;-71
2023/09/06 08:57:56;;;;;;;6.28;4.80;;;;;;;;;;5004446;28;20681;-70
2023/09/06 09:00:23;;;;;;;9.23;4.90;;;;;;;;;;5006708;28;20284;-72
2023/09/06 09:02:49;;;;;;;7.47;4.93;;;;;;;;;;5009823;28;20179;-72
2023/09/06 09:05:14;;;;;;;6.90;4.03;;;;;;;;;;5008131;28;20258;-72
2023/09/06 09:07:39;;;;;;;7.50;4.30;;;;;;;;;;5007961;28;20206;-72
2023/09/06 09:10:07;;;;;;;6.70;5.53;;;;;;;;;;5004636;28;20183;-72
2023/09/06 09:12:33;;;;;;;6.38;4.30;;;;;;;;;;5011136;28;20190;-72
2023/09/06 09:14:58;;;;;;;5.50;4.00;;;;;;;;;;5009689;28;20553;-72
2023/09/06 09:17:27;;;;;;;5.28;3.83;;;;;;;;;;5009351;28;20226;-72
2023/09/06 09:19:56;;;;;;;7.78;4.78;;;;;;;;;;5004717;28;20225;-72
2023/09/06 09:22:26;;;;;;;4.97;4.40;;;;;;;;;;5011220;28;20203;-71
2023/09/06 09:25:00;;;;;;;12.35;5.00;;;;;;;;;;5009885;28;20182;-72
2023/09/06 09:27:28;;;;;;;6.60;4.25;;;;;;;;;;5008677;28;20208;-72
2023/09/06 09:29:58;;;;;;;6.22;4.50;;;;;;;;;;5008904;28;20206;-71
2023/09/06 09:32:24;;;;;;;4.78;3.63;;;;;;;;;;5002395;28;20199;-71
2023/09/06 09:34:49;;;;;;;6.03;4.25;;;;;;;;;;5009014;28;20229;-71
2023/09/06 09:37:15;;;;;;;6.78;4.07;;;;;;;;;;5008419;28;20211;-72
2023/09/06 09:39:40;;;;;;;8.00;4.10;;;;;;;;;;5001676;28;20198;-71
2023/09/06 09:42:08;;;;;;;6.70;3.63;;;;;;;;;;5008638;28;20197;-71
2023/09/06 09:44:34;;;;;;;5.40;3.75;;;;;;;;;;5009048;28;20431;-73
2023/09/06 09:47:07;;;;;;;5.75;3.80;;;;;;;;;;5010089;28;20203;-71
2023/09/06 09:49:32;;;;;;;4.90;3.17;;;;;;;;;;5009985;28;20689;-71
2023/09/06 09:51:58;;;;;;;4.32;3.47;;;;;;;;;;5009232;28;20443;-71
2023/09/06 09:54:23;;;;;;;5.37;4.60;;;;;;;;;;5001798;28;20179;-71
2023/09/06 09:57:02;;;;;;;6.63;4.55;;;;;;;;;;5005093;28;20467;-71
2023/09/06 09:59:28;;;;;;;7.97;4.20;;;;;;;;;;5010319;28;20604;-71
2023/09/06 10:01:55;;;;;;;5.78;3.80;;;;;;;;;;5007991;28;20183;-71
2023/09/06 10:04:20;;;;;;;4.65;4.22;;;;;;;;;;5007953;28;20179;-71
2023/09/06 10:06:46;;;;;;;4.70;3.63;;;;;;;;;;5000789;28;20202;-71
2023/09/06 10:09:12;;;;;;;6.95;3.10;;;;;;;;;;5006434;28;20285;-71
2023/09/06 10:11:39;;;;;;;4.28;3.40;;;;;;;;;;5005337;28;20198;-71
2023/09/06 10:14:04;;;;;;;7.07;3.10;;;;;;;;;;5007211;28;20266;-71
2023/09/06 10:16:31;;;;;;;5.78;3.00;;;;;;;;;;5009170;28;20558;-71
2023/09/06 10:18:56;;;;;;;5.50;3.10;;;;;;;;;;5005708;28;20633;-70
2023/09/06 10:21:22;;;;;;;3.75;2.60;;;;;;;;;;5010696;28;20194;-70
2023/09/06 10:23:47;;;;;;;3.50;2.30;;;;;;;;;;5005055;28;20194;-70
2023/09/06 10:26:23;;;;;;;5.55;2.85;;;;;;;;;;5010835;28;20775;-71
2023/09/06 10:28:55;;;;;;;2.75;1.92;;;;;;;;;;5004627;28;20687;-71
2023/09/06 10:31:29;;;;;;;2.80;2.35;;;;;;;;;;5004140;28;20178;-71
2023/09/06 10:33:55;;;;;;;3.50;2.10;;;;;;;;;;5003905;28;20197;-71
2023/09/06 10:36:22;;;;;;;2.63;1.83;;;;;;;;;;5006985;28;20179;-71
2023/09/06 10:38:50;;;;;;;3.72;2.10;;;;;;;;;;5008277;28;20682;-72
2023/09/06 10:41:15;;;;;;;2.67;2.15;;;;;;;;;;5007630;28;20178;-72
2023/09/06 10:44:00;;;;;;;3.90;2.42;;;;;;;;;;5003823;28;20786;-72
2023/09/06 10:46:27;;;;;;;3.25;2.08;;;;;;;;;;5004838;28;20189;-72
2023/09/06 10:49:11;;;;;;;4.22;2.30;;;;;;;;;;5000056;28;20198;-72
2023/09/06 10:51:55;;;;;;;4.47;2.97;;;;;;;;;;5008262;28;20257;-71
2023/09/06 10:54:22;;;;;;;2.83;2.13;;;;;;;;;;5004970;28;20174;-72
2023/09/06 10:56:57;;;;;;;4.38;2.72;;;;;;;;;;5009216;28;20202;-72
2023/09/06 10:59:22;;;;;;;3.05;2.35;;;;;;;;;;5016060;28;20178;-71
2023/09/06 11:02:06;;;;;;;5.97;3.10;;;;;;;;;;5008554;28;20182;-72
2023/09/06 11:04:31;;;;;;;3.30;2.63;;;;;;;;;;5006256;28;20178;-72
2023/09/06 11:06:58;;;;;;;4.13;2.47;;;;;;;;;;5006515;28;20698;-72
2023/09/06 11:09:25;;;;;;;3.67;2.78;;;;;;;;;;5009904;28;20937;-70
2023/09/06 11:11:51;;;;;;;5.60;2.75;;;;;;;;;;5002607;28;20560;-70
2023/09/06 11:14:17;;;;;;;3.85;3.28;;;;;;;;;;5011933;28;20178;-70
2023/09/06 11:16:48;;;;;;;4.15;3.13;;;;;;;;;;5009597;28;20546;-70
2023/09/06 11:19:13;;;;;;;3.45;2.38;;;;;;;;;;5007361;28;20220;-71
2023/09/06 11:21:38;;;;;;;3.60;2.30;;;;;;;;;;5007747;28;20186;-71
2023/09/06 11:24:04;;;;;;;4.73;3.10;;;;;;;;;;5005878;28;20554;-71
2023/09/06 11:26:34;;;;;;;8.07;2.65;;;;;;;;;;5007809;28;20186;-70
2023/09/06 11:29:06;;;;;;;3.50;3.00;;;;;;;;;;5005117;28;20202;-71
2023/09/06 11:31:33;;;;;;;4.97;2.85;;;;;;;;;;5001754;28;20174;-70
2023/09/06 11:34:05;;;;;;;3.35;2.88;;;;;;;;;;5008702;28;20179;-70
2023/09/06 11:36:32;;;;;;;8.10;2.22;;;;;;;;;;5007791;28;20644;-71
2023/09/06 11:39:01;;;;;;;3.60;2.95;;;;;;;;;;4993712;28;20183;-71
2023/09/06 11:41:26;;;;;;;5.55;2.58;;;;;;;;;;5007423;28;20183;-71
2023/09/06 11:43:56;;;;;;;4.43;2.10;;;;;;;;;;5008989;28;20182;-71
2023/09/06 11:46:21;;;;;;;6.22;2.33;;;;;;;;;;5006687;28;20771;-71
2023/09/06 11:48:48;;;;;;;2.38;1.92;;;;;;;;;;5007418;28;20289;-72
2023/09/06 11:51:14;;;;;;;2.28;2.08;;;;;;;;;;5009271;28;20535;-71
2023/09/06 11:53:41;;;;;;;3.38;2.17;;;;;;;;;;5007375;28;20719;-71
2023/09/06 11:56:07;;;;;;;2.33;1.60;;;;;;;;;;5007291;28;20607;-70
2023/09/06 11:58:41;;;;;;;4.15;1.63;;;;;;;;;;5008721;28;20332;-71
2023/09/06 12:01:07;;;;;;;2.08;1.88;;;;;;;;;;5006296;28;20183;-70
2023/09/06 12:03:35;;;;;;;2.85;1.88;;;;;;;;;;5006825;28;20244;-71
2023/09/06 12:06:00;;;;;;;2.65;2.00;;;;;;;;;;5007411;28;20261;-72
2023/09/06 12:08:27;;;;;;;3.83;2.00;;;;;;;;;;5008327;28;20297;-71
2023/09/06 12:10:54;;;;;;;2.63;2.42;;;;;;;;;;5011942;28;20175;-72
2023/09/06 12:13:27;;;;;;;3.33;2.22;;;;;;;;;;5012818;28;20261;-70
2023/09/06 12:15:52;;;;;;;2.65;1.60;;;;;;;;;;5043859;28;20672;-71
2023/09/06 12:18:18;;;;;;;2.53;2.00;;;;;;;;;;5009308;28;20249;-72
2023/09/06 12:20:44;;;;;;;5.40;2.10;;;;;;;;;;5007322;28;20432;-72
2023/09/06 12:23:09;;;;;;;2.72;1.92;;;;;;;;;;5008461;28;20196;-71
2023/09/06 12:25:34;;;;;;;1.70;1.60;;;;;;;;;;5040511;28;20190;-72
2023/09/06 12:28:01;;;;;;;2.50;2.05;;;;;;;;;;5009387;28;20202;-71
2023/09/06 12:30:26;;;;;;;2.75;2.05;;;;;;;;;;5011098;28;20169;-71
2023/09/06 12:32:51;;;;;;;1.42;1.33;;;;;;;;;;5009196;28;20182;-71
2023/09/06 12:35:17;;;;;;;4.88;1.92;;;;;;;;;;5006030;28;20201;-71
2023/09/06 12:37:42;;;;;;;3.53;2.10;;;;;;;;;;5009696;28;20230;-71
2023/09/06 12:40:13;;;;;;;2.20;1.80;;;;;;;;;;5008019;28;20641;-71
2023/09/06 12:42:41;;;;;;;4.35;2.28;;;;;;;;;;5021144;28;20174;-71
2023/09/06 12:45:07;;;;;;;4.82;1.77;;;;;;;;;;5012881;28;20190;-72
2023/09/06 12:47:33;;;;;;;2.47;1.92;;;;;;;;;;5009848;28;20213;-71
2023/09/06 12:49:59;;;;;;;1.98;1.80;;;;;;;;;;5008834;28;20337;-71
2023/09/06 12:52:25;;;;;;;2.83;1.83;;;;;;;;;;5008578;28;20190;-71
2023/09/06 12:54:50;;;;;;;1.63;1.53;;;;;;;;;;5003969;28;20189;-71
2023/09/06 12:57:17;;;;;;;3.83;2.03;;;;;;;;;;5005302;28;20445;-71
2023/09/06 12:59:42;;;;;;;4.35;2.00;;;;;;;;;;5002276;28;20174;-71
2023/09/06 13:02:07;;;;;;;3.03;1.92;;;;;;;;;;5004882;28;20586;-71
2023/09/06 13:04:33;;;;;;;3.10;2.17;;;;;;;;;;5008118;28;20711;-72
2023/09/06 13:06:58;;;;;;;5.27;1.93;;;;;;;;;;5005673;28;20965;-71
2023/09/06 13:09:23;;;;;;;1.70;1.50;;;;;;;;;;5008245;28;21074;-71
2023/09/06 13:11:49;;;;;;;3.13;2.30;;;;;;;;;;5006432;28;20918;-71
2023/09/06 13:14:15;;;;;;;5.18;2.22;;;;;;;;;;5008532;28;20245;-72
2023/09/06 13:16:41;;;;;;;3.03;1.55;;;;;;;;;;5008561;28;20206;-70
2023/09/06 13:19:06;;;;;;;2.90;2.03;;;;;;;;;;5007379;28;20234;-71
2023/09/06 13:21:31;;;;;;;3.63;2.17;;;;;;;;;;5010643;28;20257;-71
2023/09/06 13:23:56;;;;;;;1.90;1.70;;;;;;;;;;5011064;28;20285;-72
2023/09/06 13:26:22;;;;;;;4.50;2.40;;;;;;;;;;5006744;28;20432;-72
2023/09/06 13:28:47;;;;;;;4.20;2.03;;;;;;;;;;5007579;28;20228;-71
2023/09/06 13:31:12;;;;;;;4.03;2.17;;;;;;;;;;5004230;28;20634;-71
2023/09/06 13:33:38;;;;;;;4.68;1.98;;;;;;;;;;5002281;28;20179;-73
2023/09/06 13:36:04;;;;;;;4.13;2.38;;;;;;;;;;5008451;28;20531;-72
2023/09/06 13:38:29;;;;;;;3.13;2.13;;;;;;;;;;5002893;28;20269;-71
2023/09/06 13:40:55;;;;;;;2.33;1.88;;;;;;;;;;5042006;28;20182;-71
2023/09/06 13:43:21;;;;;;;3.03;1.85;;;;;;;;;;5013763;28;20227;-72
2023/09/06 13:45:46;;;;;;;3.03;2.03;;;;;;;;;;5010082;28;20189;-73
2023/09/06 13:48:11;;;;;;;5.38;2.50;;;;;;;;;;5009617;28;20827;-72
2023/09/06 13:50:36;;;;;;;2.17;1.58;;;;;;;;;;5007940;28;20190;-72
2023/09/06 13:53:03;;;;;;;5.10;2.00;;;;;;;;;;5007426;28;20220;-71
2023/09/06 13:55:28;;;;;;;2.72;1.65;;;;;;;;;;5006533;28;20814;-72
2023/09/06 13:57:54;;;;;;;2.25;1.80;;;;;;;;;;5040866;28;20267;-71
2023/09/06 14:00:19;;;;;;;2.53;1.50;;;;;;;;;;5010439;28;20217;-70
2023/09/06 14:02:44;;;;;;;4.07;2.13;;;;;;;;;;5010251;28;20228;-73
2023/09/06 14:05:09;;;;;;;2.50;1.90;;;;;;;;;;5006539;28;20411;-72
2023/09/06 14:07:35;;;;;;;2.33;1.85;;;;;;;;;;5007613;28;20209;-72
2023/09/06 14:10:00;;;;;;;2.33;1.97;;;;;;;;;;5006653;28;20720;-72
2023/09/06 14:12:26;;;;;;;3.70;1.90;;;;;;;;;;5000194;28;20873;-72
2023/09/06 14:14:54;;;;;;;1.92;1.70;;;;;;;;;;5008490;28;20690;-72
2023/09/06 14:17:19;;;;;;;2.80;1.88;;;;;;;;;;5009717;28;20197;-72
2023/09/06 14:19:45;;;;;;;2.53;1.77;;;;;;;;;;5010744;28;20178;-72
2023/09/06 14:22:12;;;;;;;2.92;1.80;;;;;;;;;;5010012;28;20481;-72
2023/09/06 14:24:37;;;;;;;4.05;1.95;;;;;;;;;;5010031;28;20183;-72
2023/09/06 14:27:03;;;;;;;2.08;1.50;;;;;;;;;;5006945;28;20216;-73
2023/09/06 14:29:29;;;;;;;3.00;2.35;;;;;;;;;;5005937;28;20873;-72
2023/09/06 14:31:56;;;;;;;1.98;1.73;;;;;;;;;;5003691;28;20167;-72
2023/09/06 14:34:21;;;;;;;2.47;2.00;;;;;;;;;;5029807;28;20229;-73
2023/09/06 14:36:47;;;;;;;4.18;2.00;;;;;;;;;;5008423;28;20633;-71
2023/09/06 14:39:12;;;;;;;2.67;2.20;;;;;;;;;;5010767;28;20375;-72